Terminal Aerodrome Forecast
Issued by NWS

Home | Current Version | Previous Version | Text Only | Print | Product List | Glossary On
Versions: 1 2 3 4 5 6 7 8 9 10 11 12 13 14 15 16 17 18 19 20 21
000
FTUS44 KTSA 052320
TAFBVO
TAF
KBVO 052320Z 0600/0624 15007KT P6SM BKN018
      TEMPO 0600/0604 SCT025 BKN150 BKN250
     FM060400 13004KT P6SM BKN020
      TEMPO 0604/0608 2SM BR
     FM060800 35005KT P6SM BKN025
      TEMPO 0608/0612 3SM -DZ BR BKN012
     FM061200 35012KT P6SM BKN025
     FM061500 35010KT P6SM SCT025=

USA.gov is the U.S. government's official web portal to all federal, state and local government web resources and services.